Tiempo atmosférico en la estación meteorológica de Pamplona Aeropuerto, Navarra (459 m.)



Fecha
DESCASC
Temp. máxima en grados centígrados (hora)
DESCASC
Temp. mínima en grados centígrados (hora)
DESCASC
Temp. media en grados centígrados
DESCASC
Racha de viento máxima en m/sg (hora)
DESCASC
Velocidad máxima media en intervalos de 10 minutos(hora)
DESCASC
Precipitaciones diarias en mm
DESCASC
Precipitaciones de 00:00 a 06:00 en mm
DESCASC
Precipitaciones de 06:00 a 12:00 en mm
DESCASC
Precipitaciones de 12:00 a 18:00 en mm
DESCASC
Precipitaciones de 18:00 a 24:00 en mm
DESCASC
15-07-2018 31.7 (16:30) 15.1 (06:30) 23.4 13.33 (18:50) 9.44 (19:10) 0 0 0 0 0
14-07-2018 33.3 (18:20) 16.1 (06:40) 24.7 20 (21:10) 13.06 (20:50) 7 0.5 0 0 6.5
13-07-2018 32 (15:10) 15.4 (05:20) 23.7 13.89 (19:40) 8.33 (19:40) 14.2 0 0 1.3 12.9
12-07-2018 28 (15:00) 15.4 (00:00) 21.7 11.39 (18:20) 8.06 (18:50) 0 0 0 0 0
11-07-2018 28.6 (14:30) 16 (00:00) 22.3 13.33 (17:00) 8.89 (16:30) 0 0 0 0 0
10-07-2018 28 (15:20) 15.1 (00:00) 21.6 13.33 (18:20) 8.61 (19:40) 0 0 0 0 0
09-07-2018 28.8 (15:40) 18 (00:00) 23.4 13.89 (16:00) 8.61 (20:10) 0 0 0 0 0
08-07-2018 31.4 (16:30) 17.2 (08:20) 24.3 10.83 (19:00) 7.78 (19:00) 4.2 0 4.2 0 0
07-07-2018 31.1 (15:50) 15.1 (00:00) 23.1 9.17 (17:10) 6.67 (17:30) 1.4 0 0.5 0 0.9
06-07-2018 26.3 (15:50) 13.5 (00:00) 19.9 10.83 (18:00) 7.78 (18:10) 0 0 0 0 0
05-07-2018 24.1 (15:20) 15.4 (23:59) 19.8 12.5 (16:30) 8.61 (16:30) 0 0 0 0 0
04-07-2018 31.8 (14:40) 16 (07:00) 23.9 18.61 (16:40) 12.78 (16:50) 5.2 0 0 5.2 0
03-07-2018 31 (16:40) 15.4 (06:40) 23.2 12.5 (19:40) 8.89 (19:40) 0 0 0 0 0
02-07-2018 29.9 (16:20) 16.3 (06:50) 23.1 7.78 (14:20) 5.28 (14:20) 0 0 0 0 0
01-07-2018 32.5 (17:40) 17.2 (00:00) 24.9 9.72 (15:40) 6.94 (21:20) 0 0 0 0 0
30-06-2018 31.9 (16:30) 16.3 (07:00) 24.1 17.5 (19:00) 10.28 (19:00) 1.4 0.4 0 0 1
29-06-2018 31.6 (16:20) 16.1 (00:00) 23.9 18.06 (22:00) 12.22 (22:00) 20.1 0 0 0 20.1
28-06-2018 24.1 (16:10) 17.5 (00:00) 20.8 12.78 (15:40) 9.44 (15:10) 0 0 0 0 0
27-06-2018 30.2 (14:30) 16.2 (00:00) 23.2 12.5 (18:10) 8.61 (18:10) 0 0 0 0 0
26-06-2018 32.6 (16:50) 12.6 (00:00) 22.6 8.89 (18:40) 6.39 (18:40) 0 0 0 0 0
25-06-2018 30.2 (15:50) 13 (00:00) 21.6 9.72 (17:30) 6.67 (17:50) 0 0 0 0 0
24-06-2018 30.8 (16:00) 10.6 (00:00) 20.7 8.33 (16:50) 6.11 (18:00) 0 0 0 0 0
23-06-2018 27.6 (15:30) 12.2 (00:00) 19.9 10.28 (00:20) 7.5 (17:30) 0 0 0 0 0
22-06-2018 26.2 (15:40) 16 (23:59) 21.1 11.67 (15:40) 8.61 (19:20) 0 0 0 0 0
21-06-2018 31.1 (14:30) 16.7 (00:00) 23.9 12.5 (19:30) 8.89 (19:40) 0 0 0 0 0
20-06-2018 32.4 (18:30) 13 (00:00) 22.7 11.67 (14:50) 4.17 (21:00) 0 0 0 0 0
19-06-2018 26.9 (17:50) 14.4 (00:00) 20.6 9.72 (00:40) 6.94 (03:50) 0 0 0 0 0
18-06-2018 21.6 (15:00) 10.5 (00:00) 16.1 14.44 (19:10) 10.28 (19:10) 0 0 0 0 0
17-06-2018 21.1 (15:50) 11.4 (00:00) 16.3 12.5 (18:50) 8.61 (18:50) 0 0 0 0 0

Gráficas

Temp. máximas Temp. mínimas Temp. medias Precipitaciones Rachas de viento máximas Velocidades máximas media en intervalos de 10 minutos

Datos horarios

Fecha y hora oficial Temperatura (ºC) Velocidad del viento (km/h) Dirección del viento Racha (km/h) Dirección de racha Precipitación (mm) Presión (hPa) Tendencia (hPa) Humedad (%)
2018-07-16 23:00:00 16.3 13 Norte 28 Noroeste 0 969.6 1.4 78
2018-07-16 22:00:00 17.4 18 Noroeste 33 Noroeste 0 969.1 1.4 79
2018-07-16 21:00:00 18.6 19 Noroeste 30 Norte 0 968.6 0.8 77
2018-07-16 20:00:00 20.1 20 Norte 33 Noroeste 0 968.2 0.5 71
2018-07-16 19:00:00 21.5 21 Noroeste 35 Noroeste 0 967.7 0.3 66
2018-07-16 18:00:00 21.9 23 Noroeste 42 Norte 0 967.8 0.6 64
2018-07-16 17:00:00 22.7 28 Noroeste 42 Noroeste 0 967.7 0.6 63
2018-07-16 16:00:00 21.1 31 Noroeste 45 Noroeste 0 967.4 1.1 69
2018-07-16 15:00:00 20.4 25 Noroeste 39 Noroeste 0 967.2 1.3 78
2018-07-16 14:00:00 17.6 13 Noroeste 41 Noroeste 1.7 967.1 1.3 97
2018-07-16 13:00:00 22.5 26 Noroeste 41 Noroeste 0 966.3 0.7 63
2018-07-16 12:00:00 21.1 28 Noroeste 41 Noroeste 0 965.9 1.1 67
2018-07-16 11:00:00 18.5 23 Noroeste 35 Noroeste 0 965.8 1.4 78
2018-07-16 10:00:00 18.1 18 Noroeste 35 Noroeste 0 965.6 1.7 75
2018-07-16 09:00:00 18.4 13 Norte 42 Noroeste 0 964.8 1.5 73
2018-07-16 08:00:00 18.6 23 Noroeste 42 Noroeste 0 964.4 1.1 76
2018-07-16 07:00:00 18.5 16 Norte 28 Norte 0 963.9 0.2 80
2018-07-16 06:00:00 18.2 10 Noroeste 30 Noroeste 0 963.3 -0.8 81
2018-07-16 05:00:00 18.1 17 Noroeste 32 Noroeste 0 963.3 -1 81
2018-07-16 04:00:00 17.4 10 Noroeste 18 Noroeste 0 963.7 -0.4 87
2018-07-16 03:00:00 17.2 4 Norte 21 Norte 0 964.1 0.4 87
2018-07-16 02:00:00 17.8 15 Noroeste 24 Noroeste 0 964.3 0.4 84
2018-07-16 01:00:00 18.4 19 Noroeste 30 Noroeste 0 964.1 0.5 81
2018-07-16 00:00:00 19.4 8 Noroeste 28 Noroeste 0 963.7 1.1 80
2018-07-15 23:00:00 20.3 16 Noroeste 30 Noroeste 0 963.9 2.2 78
2018-07-15 22:00:00 20.4 20 Norte 48 Noroeste 0 963.6 2.3 77
2018-07-15 21:00:00 21.2 28 Noroeste 42 Noroeste 0 962.6 1.9 74
2018-07-15 20:00:00 23.5 28 Norte 46 Norte 0 961.7 0.9 72
2018-07-15 19:00:00 25.8 33 Norte 48 Noroeste 0 961.3 -0.1 66
2018-07-15 18:00:00 27.5 24 Norte 45 Norte 0 960.7 -1.3 60
2018-07-15 17:00:00 30.5 12 Oeste 26 Sur 0 960.8 -1.8 41
2018-07-15 16:00:00 29.6 9 Noroeste 26 Norte 0 961.4 -1.9 46
2018-07-15 15:00:00 29.9 7 Nordeste 18 Norte 0 962 -1.7 47
2018-07-15 14:00:00 28.5 5 Norte 17 Norte 0 962.6 -1.3 52
2018-07-15 13:00:00 27.8 7 Noroeste 13 Norte 0 963.3 -0.9 55
2018-07-15 12:00:00 24.9 5 Noroeste 11 Noroeste 0 963.7 -0.7 63
2018-07-15 11:00:00 22.2 4 Noroeste 9 Oeste 0 963.9 -0.4 73
2018-07-15 10:00:00 21 3 Norte 8 Nordeste 0 964.2 0 76
2018-07-15 09:00:00 19 2 Nordeste 8 Este 0 964.4 0.6 81
2018-07-15 08:00:00 17 4 Este 8 Este 0 964.3 0.6 90
2018-07-15 07:00:00 15.1 3 Sudoeste 9 Nordeste 0 964.2 0.4 96
2018-07-15 06:00:00 15.2 2 Sudeste 5 Noroeste 0 963.8 -0.5 95
2018-07-15 05:00:00 15.8 2 Sudoeste 8 Este 0 963.7 -0.9 93
2018-07-15 04:00:00 16.2 6 Sudeste 9 Este 0 963.8 -0.2 91
2018-07-15 03:00:00 16.7 8 Sur 9 Sudoeste 0 964.3 0 93
2018-07-15 02:00:00 17.2 10 Noroeste 17 Noroeste 0 964.6 0.1 92
2018-07-15 01:00:00 18.1 10 Norte 18 Este 0 964 0 83
2018-07-15 00:00:00 18.2 8 Este 15 Este 0 964.3 1.2 85
2018-07-14 23:00:00 18.6 8 Sudoeste 26 Sur 0 964.5 3.1 92
2018-07-14 22:00:00 19.5 27 Nordeste 72 Norte 6.5 964 2.5 94
2018-07-14 21:00:00 25.2 42 Noroeste 68 Norte 0 963.1 1 70
2018-07-14 20:00:00 28.1 19 Norte 30 Norte 0 961.4 -1.4 63
2018-07-14 19:00:00 31.2 20 Norte 33 Nordeste 0 961.5 -1.8 47
2018-07-14 18:00:00 32.5 3 Sudeste 21 Norte 0 962.1 -1.8 37
2018-07-14 17:00:00 31.6 6 Este 18 Nordeste 0 962.8 -1.7 40
2018-07-14 16:00:00 31.2 9 Sudeste 18 Sudeste 0 963.3 -1.6 41
2018-07-14 15:00:00 30 7 Este 26 Sudeste 0 963.9 -1.5 45
2018-07-14 14:00:00 29.2 9 Sudeste 18 Este 0 964.5 -1.1 47
2018-07-14 13:00:00 28 7 Noroeste 11 Oeste 0 964.9 -0.7 53
2018-07-14 12:00:00 26 5 Norte 11 Norte 0 965.4 0.1 60
2018-07-14 11:00:00 24.1 5 Noroeste 11 Noroeste 0 965.6 0.6 71
2018-07-14 10:00:00 21.9 4 Nordeste 13 Norte 0 965.6 0.9 76
2018-07-14 09:00:00 19.9 4 Norte 8 Norte 0 965.3 0.5 85
2018-07-14 08:00:00 17.8 0 Calma 9 Noroeste 0 965 -0.3 93
2018-07-14 07:00:00 16.2 8 Oeste 17 Oeste 0 964.7 -1.5 97
2018-07-14 06:00:00 16.5 8 Oeste 9 Oeste 0 964.8 -2.4 97
2018-07-14 05:00:00 17.3 4 Nordeste 15 Sur 0 965.3 -1 95
2018-07-14 04:00:00 17.7 9 Sudeste 17 Noroeste 0.2 966.2 0 95
2018-07-14 03:00:00 18.1 10 Sudeste 17 Sur 0.3 967.2 1.3 95
2018-07-14 02:00:00 17.6 6 Sudeste 13 Norte 0 966.3 0.5 95
2018-07-14 01:00:00 18.2 6 Norte 9 Norte 0 966.2 1 94
2018-07-14 00:00:00 18.3 4 Este 11 Sudeste 0 965.9 1.3 92
2018-07-13 23:00:00 19 5 Sur 33 Este 5.9 965.8 0 92
2018-07-13 22:00:00 19.8 9 Norte 21 Sur 1.9 965.2 1 92
2018-07-13 21:00:00 20.6 11 Sudeste 32 Noroeste 4.7 964.6 0.8 88
2018-07-13 20:00:00 21.4 10 Oeste 50 Norte 0.4 965.8 1.8 87
2018-07-13 19:00:00 23 19 Noroeste 32 Norte 0 964.2 -0.2 79
2018-07-13 18:00:00 25.3 14 Nordeste 24 Nordeste 0 963.8 -0.5 70
2018-07-13 17:00:00 26.6 11 Norte 28 Sudeste 0.2 964 -0.9 66
2018-07-13 16:00:00 27 18 Sur 32 Sur 1.1 964.4 -1.2 64
2018-07-13 15:00:00 30.5 8 Oeste 18 Nordeste 0 964.3 -1.8 45
2018-07-13 14:00:00 29.7 9 Oeste 18 Sudoeste 0 964.9 -1.6 46
2018-07-13 13:00:00 27.6 7 Sudoeste 15 Noroeste 0 965.6 -1.3 50
2018-07-13 12:00:00 23.2 4 Este 9 Norte 0 966.1 -0.6 60
2018-07-13 11:00:00 20.7 4 Oeste 11 Oeste 0 966.5 0.3 66
2018-07-13 10:00:00 19.2 10 Noroeste 13 Noroeste 0 966.9 0.8 73
2018-07-13 09:00:00 17.7 7 Oeste 9 Oeste 0 966.7 0.4 76
2018-07-13 08:00:00 16.6 4 Norte 8 Norte 0 966.2 0 80
2018-07-13 07:00:00 15.8 5 Sudeste 8 Sudeste 0 966.1 -0.1 85
2018-07-13 06:00:00 15.6 0 Calma 9 Sudeste 0 966.3 0 86
2018-07-13 05:00:00 15.5 2 Sudeste 5 Sudeste 0 966.2 -0.1 84
2018-07-13 04:00:00 16 2 Sur 5 Sudeste 0 966.2 -0.5 82
2018-07-13 03:00:00 16.5 3 Sudeste 8 Sudeste 0 966.3 -0.1 79
2018-07-13 02:00:00 16.9 2 Este 15 Norte 0 966.3 0.1 75
2018-07-13 01:00:00 17.3 10 Norte 22 Norte 0 966.7 1.2 75
2018-07-13 00:00:00 17.8 14 Noroeste 22 Norte 0 966.4 1.4 73
2018-07-12 23:00:00 18.5 14 Noroeste 21 Noroeste 0 966.2 1.6 73
2018-07-12 22:00:00 19.6 16 Norte 30 Norte 0 965.5 1.5 72
2018-07-12 21:00:00 21.8 22 Noroeste 33 Norte 0 965 0.9 66
2018-07-12 20:00:00 23.2 24 Norte 37 Norte 0 964.6 0.6 63
2018-07-12 19:00:00 25.5 25 Noroeste 41 Norte 0 964 -0.3 54
2018-07-12 18:00:00 26 27 Norte 37 Norte 0 964.1 -0.2 51
2018-07-12 17:00:00 26.4 20 Norte 37 Norte 0 964 -0.7 51
2018-07-12 16:00:00 27.4 22 Noroeste 35 Noroeste 0 964.3 -- 48
2018-07-12 15:00:00 27.4 19 Noroeste 32 Noroeste 0 964.3 -0.5 47
2018-07-12 14:00:00 25.4 17 Noroeste 35 Noroeste 0 964.7 0 51
2018-07-12 13:00:00 -- -- -- -- -- -- -- -- --
2018-07-12 12:00:00 24.7 11 Norte 30 Noroeste 0 964.8 0.6 55
2018-07-12 11:00:00 23.5 12 Norte 22 Norte 0 964.7 0.8 60
2018-07-12 10:00:00 20.4 4 Sudeste 9 Este 0 964.6 1.1 74
2018-07-12 09:00:00 19 3 Nordeste 8 Sur 0 964.2 0.9 82
2018-07-12 08:00:00 16.8 2 Sudeste 9 Sudeste 0 963.9 0.7 93
2018-07-12 07:00:00 15.7 3 Norte 5 Noroeste 0 963.5 0.4 91
2018-07-12 06:00:00 16.2 4 Sudoeste 8 Sudoeste 0 963.3 -0.2 90
2018-07-12 05:00:00 16.8 4 Oeste 13 Noroeste 0 963.2 -0.5 88
2018-07-12 04:00:00 18.2 9 Noroeste 15 Norte 0 963.1 -0.4 84
2018-07-12 03:00:00 18.9 8 Norte 21 Noroeste 0 963.5 0.4 84
2018-07-12 02:00:00 19.6 13 Noroeste 24 Noroeste 0 963.7 0.7 79
2018-07-12 01:00:00 19.7 16 Noroeste 24 Norte 0 963.5 1 79
2018-07-12 00:00:00 20.1 14 Noroeste 28 Norte 0 963.1 1.3 78
2018-07-11 23:00:00 20.9 21 Norte 32 Norte 0 963 1.3 76
2018-07-11 22:00:00 21.6 17 Norte 26 Norte 0 962.5 0.5 73
2018-07-11 21:00:00 23.2 19 Norte 32 Nordeste 0 961.8 -0.5 60
2018-07-11 20:00:00 24.5 19 Norte 35 Norte 0 961.7 -1.3 56
2018-07-11 19:00:00 25.1 20 Nordeste 37 Nordeste 0 962 -2 54
2018-07-11 18:00:00 25.5 31 Nordeste 46 Nordeste 0 962.3 -1.2 52
2018-07-11 17:00:00 25.8 31 Norte 48 Norte 0 963 0.1 51
2018-07-11 16:00:00 26.3 31 Norte 42 Norte 0 964 1.1 52
2018-07-11 15:00:00 27.3 30 Noroeste 42 Noroeste 0 963.5 0.3 47
2018-07-11 14:00:00 27.4 14 Norte 33 Noroeste 0 962.9 -0.6 49
2018-07-11 13:00:00 27.1 20 Noroeste 30 Noroeste 0 962.9 -1.2 52
2018-07-11 12:00:00 26.1 15 Norte 30 Norte 0 963.2 -1.3 51
2018-07-11 11:00:00 24.4 14 Norte 26 Norte 0 963.5 -1.2 56
2018-07-11 10:00:00 22.6 12 Norte 32 Norte 0 964.1 -0.5 64
2018-07-11 09:00:00 20.8 20 Norte 28 Norte 0 964.5 -0.1 70
2018-07-11 08:00:00 18.6 11 Noroeste 17 Noroeste 0 964.7 -0.1 78
2018-07-11 07:00:00 16.2 12 Noroeste 22 Norte 0 964.6 -0.3 85
2018-07-11 06:00:00 16.4 17 Noroeste 22 Noroeste 0 964.6 -0.7 83
2018-07-11 05:00:00 16.7 18 Noroeste 22 Noroeste 0 964.8 -0.9 81
2018-07-11 04:00:00 16.9 11 Noroeste 26 Norte 0 964.9 -1.2 81
2018-07-11 03:00:00 17.5 17 Norte 24 Norte 0 965.3 -1.1 78
2018-07-11 02:00:00 17.5 12 Noroeste 21 Norte 0 965.7 -0.8 76
2018-07-11 01:00:00 18 13 Noroeste 22 Norte 0 966.1 0 75
2018-07-11 00:00:00 18.6 15 Noroeste 26 Norte 0 966.4 0.7 74
2018-07-10 23:00:00 19.6 18 Noroeste 30 Noroeste 0 966.5 1.3 72
2018-07-10 22:00:00 21 24 Norte 35 Norte 0 966.1 1 66
2018-07-10 21:00:00 22.8 20 Norte 42 Norte 0 965.7 0.6 60
2018-07-10 20:00:00 24.5 28 Norte 42 Norte 0 965.2 0 52
2018-07-10 19:00:00 25.5 26 Norte 48 Norte 0 965.1 -0.2 50
2018-07-10 18:00:00 26.5 27 Norte 46 Norte 0 965.1 -0.4 49
2018-07-10 17:00:00 26.8 26 Norte 42 Norte 0 965.2 -0.7 48
2018-07-10 16:00:00 27.2 29 Norte 45 Norte 0 965.3 -0.9 51
2018-07-10 15:00:00 27.2 26 Norte 42 Norte 0 965.5 -1.1 53
2018-07-10 14:00:00 27.4 29 Noroeste 42 Noroeste 0 965.9 -0.8 54
2018-07-10 13:00:00 25.6 27 Noroeste 39 Norte 0 966.2 -0.7 57
2018-07-10 12:00:00 25.2 20 Norte 33 Norte 0 966.6 -0.7 60
2018-07-10 11:00:00 24.7 22 Norte 30 Norte 0 966.7 -0.6 61
2018-07-10 10:00:00 23.1 21 Norte 30 Norte 0 966.9 -0.2 65
2018-07-10 09:00:00 21.4 14 Norte 22 Norte 0 967.3 0.2 70
2018-07-10 08:00:00 17.9 3 Sudeste 8 Sudeste 0 967.3 0.4 82
2018-07-10 07:00:00 15.6 5 Sur 8 Sudeste 0 967.1 -0.2 87
2018-07-10 06:00:00 15.7 4 Sudoeste 9 Sudeste 0 967.1 -0.3 85
2018-07-10 05:00:00 16.5 4 Sudoeste 9 Sudeste 0 966.9 -1.1 80
2018-07-10 04:00:00 17.2 5 Sudoeste 8 Sudoeste 0 967.3 -1 78
2018-07-10 03:00:00 17.9 0 Calma 17 Noroeste 0 967.4 -1.2 75
2018-07-10 02:00:00 19.2 13 Norte 28 Norte 0 968 -0.6 69
2018-07-10 01:00:00 19.2 13 Noroeste 24 Norte 0 968.3 0.2 72
2018-07-10 00:00:00 19.8 15 Noroeste 22 Norte 0 968.6 0.9 72
2018-07-09 23:00:00 20.6 15 Noroeste 30 Norte 0 968.6 1.5 64
2018-07-09 22:00:00 21.6 20 Norte 37 Norte 0 968.1 1.3 60
2018-07-09 21:00:00 23.1 23 Norte 45 Norte 0 967.7 1 59
2018-07-09 20:00:00 24.5 29 Norte 46 Norte 0 967.1 0.4 60
2018-07-09 19:00:00 25.8 28 Norte 46 Nordeste 0 966.8 -0.2 53
2018-07-09 18:00:00 26.8 23 Nordeste 41 Nordeste 0 966.7 -0.6 49
2018-07-09 17:00:00 27.5 24 Norte 39 Norte 0 966.7 -1 47
2018-07-09 16:00:00 28.3 22 Norte 50 Norte 0 967 -1.1 45
2018-07-09 15:00:00 28.1 23 Nordeste 39 Nordeste 0 967.3 -1 42
2018-07-09 14:00:00 27.6 26 Nordeste 42 Norte 0 967.7 -0.6 43
2018-07-09 13:00:00 27.1 27 Nordeste 41 Nordeste 0 968.1 -0.5 45
2018-07-09 12:00:00 26.8 24 Nordeste 41 Norte 0 968.3 -0.4 46
2018-07-09 11:00:00 25.9 14 Norte 30 Noroeste 0 968.3 -0.4 51
2018-07-09 10:00:00 24.5 14 Norte 26 Norte 0 968.6 0.1 62
2018-07-09 09:00:00 22.4 15 Norte 24 Norte 0 968.7 0.3 69
2018-07-09 08:00:00 19.8 10 Noroeste 15 Noroeste 0 968.7 0.4 79
2018-07-09 07:00:00 18.3 8 Noroeste 13 Noroeste 0 968.5 0.4 84
2018-07-09 06:00:00 18.4 5 Noroeste 15 Noroeste 0 968.4 0.1 83
2018-07-09 05:00:00 19.1 11 Noroeste 17 Noroeste 0 968.3 -0.3 80
2018-07-09 04:00:00 20 10 Noroeste 21 Noroeste 0 968.1 -0.7 76
2018-07-09 03:00:00 20.7 12 Noroeste 22 Norte 0 968.3 -1 72
2018-07-09 02:00:00 20.9 10 Noroeste -- -- -- 968.6 -0.3 74
2018-07-09 01:00:00 21.4 9 Noroeste 24 Noroeste 0 968.8 0.5 78
2018-07-09 00:00:00 22 14 Noroeste 26 Noroeste 0 969.3 1.4 77
2018-07-08 23:00:00 22.4 19 Noroeste 30 Noroeste 0 968.9 1.7 74
2018-07-08 22:00:00 23.1 18 Noroeste 32 Norte 0 968.3 1.7 76
2018-07-08 21:00:00 24.4 19 Norte 33 Norte 0 967.9 1.5 73
2018-07-08 20:00:00 26.9 20 Norte 33 Norte 0 967.2 0.4 65
2018-07-08 19:00:00 27.9 28 Noroeste 39 Noroeste 0 966.6 -0.2 61
2018-07-08 18:00:00 28.8 22 Norte 32 Norte 0 966.4 -1.1 52
2018-07-08 17:00:00 30.1 23 Norte 33 Norte 0 966.8 -1.1 49
2018-07-08 16:00:00 30.5 11 Norte 22 Oeste 0 966.8 -1.6 46
2018-07-08 15:00:00 29.5 7 Norte 18 Nordeste 0 967.5 -1.1 50
2018-07-08 14:00:00 28.1 6 Norte 15 Noroeste 0 967.9 -1.1 55
2018-07-08 13:00:00 26.3 4 Norte 17 Noroeste 0 968.4 -0.3 61
2018-07-08 12:00:00 24.8 6 Noroeste 15 Noroeste 0 968.6 0.5 69
2018-07-08 11:00:00 21.9 8 Noroeste 17 Este 0 969 0.6 79
2018-07-08 10:00:00 20.7 9 Sudeste 15 Sudeste 0 968.7 -0.2 82
2018-07-08 09:00:00 17.8 6 Este 28 Nordeste 1.1 968.1 -0.2 94
2018-07-08 08:00:00 17.5 10 Nordeste 21 Nordeste 3.1 968.4 1.2 93
2018-07-08 07:00:00 18.6 6 Sur 13 Oeste 0 968.9 1.4 93
2018-07-08 06:00:00 18.5 11 Oeste 21 Oeste 0 968.3 -0.2 94
2018-07-08 05:00:00 19.9 6 Sudoeste 17 Noroeste 0 967.2 -1.5 84
2018-07-08 04:00:00 19.1 9 Este 18 Este 0 967.5 -0.6 93
2018-07-08 03:00:00 19.4 9 Sur 17 Sur 0 968.5 0.3 94
2018-07-08 02:00:00 19.5 8 Oeste 21 Noroeste 0 968.7 0.9 93
2018-07-08 01:00:00 19.6 7 Sudoeste 15 Noroeste 0 968.1 0.2 93
2018-07-08 00:00:00 20 11 Oeste 22 Oeste 0.5 968.2 1.2 91
2018-07-07 23:00:00 20.4 15 Nordeste 30 Noroeste 0.4 967.8 1.4 90
2018-07-07 22:00:00 22.1 18 Noroeste 26 Noroeste 0 967.9 1.5 78
2018-07-07 21:00:00 23.4 14 Noroeste 22 Noroeste 0 967 0.6 73
2018-07-07 20:00:00 24.2 16 Noroeste 24 Noroeste 0 966.4 0.8 71
2018-07-07 19:00:00 24.5 18 Norte 33 Noroeste 0 966.4 0.6 69
2018-07-07 18:00:00 25.9 23 Noroeste 33 Noroeste 0 966.4 0 65
2018-07-07 17:00:00 29.5 14 Noroeste 28 Norte 0 965.6 -1.3 48
2018-07-07 16:00:00 30.7 5 Sudeste 22 Sudeste 0 965.8 -1.5 43
2018-07-07 15:00:00 29.9 9 Este 21 Este 0 966.4 -1.4 45
2018-07-07 14:00:00 28.8 9 Sudeste 18 Sudeste 0 966.9 -1.1 48
2018-07-07 13:00:00 26.7 8 Sudeste 17 Sur 0 967.3 -1.1 52
2018-07-07 12:00:00 25.3 6 Norte 13 Norte 0 967.8 -0.9 57
2018-07-07 11:00:00 23.2 5 Sur 11 Sudeste 0 968 -1 65
2018-07-07 10:00:00 20.3 3 Sudoeste 9 Sur 0 968.4 -0.8 77
2018-07-07 09:00:00 17.3 5 Sudeste 11 Sudeste 0 968.7 -0.4 88
2018-07-07 08:00:00 16.3 4 Sudeste 13 Norte 0.1 969 0.4 93
2018-07-07 07:00:00 16.6 10 Norte 24 Norte 0.4 969.2 0.5 87
2018-07-07 06:00:00 15.8 9 Oeste 13 Oeste 0 969.1 -0.1 89
2018-07-07 05:00:00 15.2 6 Sudeste 13 Norte 0 968.6 -0.8 90
2018-07-07 04:00:00 15.7 8 Noroeste 11 Norte 0 968.7 -0.9 87
2018-07-07 03:00:00 16.4 9 Noroeste 18 Noroeste 0 969.2 -0.4 83
2018-07-07 02:00:00 17.1 13 Noroeste 21 Norte 0 969.4 0.1 81
2018-07-07 01:00:00 17.5 13 Noroeste 22 Norte 0 969.6 1 82
2018-07-07 00:00:00 17.6 13 Noroeste 24 Norte 0 969.6 1.4 83
2018-07-06 23:00:00 18.1 15 Noroeste 26 Norte 0 969.3 1.5 81
2018-07-06 22:00:00 18.8 19 Norte 30 Norte 0 968.6 1 78
2018-07-06 21:00:00 20.6 18 Norte 33 Noroeste 0 968.2 0.1 71
2018-07-06 20:00:00 22.4 21 Norte 33 Noroeste 0 967.8 -0.6 62
2018-07-06 19:00:00 23.4 22 Norte 37 Norte 0 967.6 -1 57
2018-07-06 18:00:00 24.7 27 Noroeste 39 Norte 0 968.1 -0.8 54
2018-07-06 17:00:00 25.2 23 Noroeste 35 Noroeste 0 968.4 -1 52
2018-07-06 16:00:00 25.2 21 Noroeste 33 Norte 0 968.6 -1.2 53
2018-07-06 15:00:00 25.5 22 Noroeste 35 Noroeste 0 968.9 -1 51
2018-07-06 14:00:00 24 16 Norte -- -- -- 969.4 -0.7 54
2018-07-06 13:00:00 23 19 Noroeste 32 Norte 0 969.8 -0.4 58
2018-07-06 12:00:00 22.9 16 Noroeste 30 Norte 0 969.9 -0.3 57
2018-07-06 11:00:00 21.4 17 Noroeste 26 Norte 0 970.1 0 63
2018-07-06 10:00:00 19.3 14 Norte 21 Norte 0 970.2 0.2 68
2018-07-06 09:00:00 18.6 11 Noroeste 15 Noroeste 0 970.2 0.4 74
2018-07-06 08:00:00 15 5 Noroeste 9 Norte 0 970.1 0.4 90
2018-07-06 07:00:00 14 6 Oeste 13 Noroeste 0 970 -0.1 88
2018-07-06 06:00:00 14.2 8 Noroeste 21 Norte 0 969.8 -0.7 86
2018-07-06 05:00:00 14.7 9 Noroeste 15 Norte 0 969.7 -1.1 85
2018-07-06 04:00:00 15.9 11 Norte 18 Norte 0 970.1 -0.8 80
2018-07-06 03:00:00 16.1 13 Norte 21 Norte 0 970.5 -0.4 80
2018-07-06 02:00:00 14.9 10 Noroeste 15 Norte 0 970.8 0.1 86
2018-07-06 01:00:00 15 7 Noroeste 21 Noroeste 0 970.9 0.8 85
2018-07-06 00:00:00 15.5 12 Noroeste 18 Norte 0 970.9 0.8 82
2018-07-05 23:00:00 16 10 Norte 22 Norte 0 970.7 1 80
2018-07-05 22:00:00 16.6 13 Norte 30 Norte 0 970.1 0.5 76
2018-07-05 21:00:00 17.5 14 Norte 33 Norte 0 970.1 0.9 74
2018-07-05 20:00:00 18.4 26 Norte 37 Norte 0 969.7 0.5 72
2018-07-05 19:00:00 18.9 24 Norte 37 Norte 0 969.6 0.9 70
2018-07-05 18:00:00 20 27 Norte 41 Norte 0 969.2 0.4 63
2018-07-05 17:00:00 20.8 26 Norte 45 Norte 0 969.2 0.2 61
2018-07-05 16:00:00 22.9 26 Norte 39 Norte 0 968.7 -0.5 55
2018-07-05 15:00:00 22.6 20 Norte 37 Norte 0 968.8 -0.3 57
2018-07-05 14:00:00 23.3 19 Norte 35 Norte 0 969 0 53
2018-07-05 13:00:00 20.7 21 Norte 33 Norte 0 969.2 0.4 60
2018-07-05 12:00:00 19.9 19 Norte 32 Norte 0 969.1 0.6 64
2018-07-05 11:00:00 20.3 24 Noroeste 32 Noroeste 0 969 1 64
2018-07-05 10:00:00 19.3 19 Norte 30 Norte 0 968.8 1.3 71
2018-07-05 09:00:00 17.1 15 Norte 24 Norte 0 968.5 1.4 80
2018-07-05 08:00:00 16.9 11 Norte 18 Norte 0 968 1.1 81
2018-07-05 07:00:00 16.4 6 Norte 13 Norte 0 967.5 0.4 82
2018-07-05 06:00:00 16 10 Norte 17 Norte 0 967.1 0 85
2018-07-05 05:00:00 16.4 12 Norte 24 Noroeste 0 966.9 -0.2 84
2018-07-05 04:00:00 16.6 12 Norte 18 Norte 0 967.1 0.2 86
2018-07-05 03:00:00 16.5 10 Norte 18 Noroeste 0 967.1 0.4 89
2018-07-05 02:00:00 17.2 14 Noroeste 21 Noroeste 0 967.1 0.8 83
2018-07-05 01:00:00 17.3 10 Norte 17 Norte 0 966.9 1.7 82
2018-07-05 00:00:00 17.6 13 Norte 28 Norte 0 966.7 2.1 77
2018-07-04 23:00:00 18 12 Norte 24 Norte 0 966.3 2.9 78
2018-07-04 22:00:00 17.8 13 Noroeste 33 Noroeste 0 965.2 2.9 83
2018-07-04 21:00:00 18.4 22 Norte 45 Norte 0 964.6 2 80
2018-07-04 20:00:00 20.1 19 Norte 39 Norte 0 963.4 3.6 77
2018-07-04 19:00:00 19.8 11 Norte 22 Norte 0 962.3 3.7 89
2018-07-04 18:00:00 18.6 21 Noroeste 39 Norte 5.2 962.6 2.9 91
2018-07-04 17:00:00 20.3 39 Norte 67 Norte 0 959.8 -0.6 66
2018-07-04 16:00:00 30.5 17 Sur 35 Sur 0 958.6 -2.4 36
2018-07-04 15:00:00 30.8 19 Sur 39 Sudoeste 0 959.7 -2.1 37
2018-07-04 14:00:00 30.9 19 Sur 32 Sur 0 960.4 -1.9 35
2018-07-04 13:00:00 29.1 13 Sur 24 Sur 0 961 -1.9 43
2018-07-04 12:00:00 25.9 3 Este 13 Noroeste 0 961.8 -1.5 53
2018-07-04 11:00:00 24.4 5 Noroeste 13 Nordeste 0 962.3 -1.1 66
2018-07-04 10:00:00 22 5 Este 11 Este 0 962.9 -0.6 71
2018-07-04 09:00:00 19.7 3 Norte 5 Norte 0 963.3 -0.3 81
2018-07-04 08:00:00 18.6 0 Calma 5 Sudeste 0 963.4 -0.6 86
2018-07-04 07:00:00 16.1 3 Sudoeste 8 Sudeste 0 963.5 -0.6 92
2018-07-04 06:00:00 16.7 0 Calma 9 Norte 0 963.6 -0.7 91
2018-07-04 05:00:00 17.8 9 Noroeste 17 Noroeste 0 964 -0.5 88
2018-07-04 04:00:00 18.2 9 Noroeste 15 Noroeste 0 964.1 -0.9 88
2018-07-04 03:00:00 18.5 10 Noroeste 21 Noroeste 0 964.3 -0.5 89
2018-07-04 02:00:00 18.5 9 Noroeste 17 Norte 0 964.5 0.1 88
2018-07-04 01:00:00 19 9 Norte 24 Noroeste 0 965 1.3 87
2018-07-04 00:00:00 19.6 15 Noroeste 24 Noroeste 0 964.8 1.7 86
2018-07-03 23:00:00 20.1 16 Noroeste 30 Norte 0 964.4 1.8 84
2018-07-03 22:00:00 21 21 Noroeste 37 Norte 0 963.7 1.7 81
2018-07-03 21:00:00 22.8 22 Noroeste 39 Norte 0 963.1 1.1 74
2018-07-03 20:00:00 24.4 30 Norte 45 Noroeste 0 962.6 0.1 67
2018-07-03 19:00:00 27.4 28 Noroeste 37 Noroeste 0 962 -0.9 58
2018-07-03 18:00:00 30.5 14 Sudoeste 33 Sur 0 962 -1.3 33
2018-07-03 17:00:00 30.4 14 Sur 28 Sur 0 962.5 -1.3 33
2018-07-03 16:00:00 29.7 10 Sur 24 Sur 0 962.9 -1.4 34
2018-07-03 15:00:00 29.5 9 Sudeste 17 Sur 0 963.3 -1.4 40
2018-07-03 14:00:00 28.9 9 Noroeste 21 Oeste 0 963.8 -1 47
2018-07-03 13:00:00 26.9 7 Nordeste 22 Noroeste 0 964.3 -0.7 53
2018-07-03 12:00:00 25.4 13 Noroeste -- -- -- 964.7 -0.4 63
2018-07-03 11:00:00 24.6 7 Oeste 13 Oeste 0 964.8 0 64
2018-07-03 10:00:00 22.9 3 Oeste 8 Norte 0 965 0.6 67
2018-07-03 09:00:00 20.3 4 Nordeste 8 Este 0 965.1 1 75
2018-07-03 08:00:00 18.1 0 Calma 8 Sur 0 964.8 0.7 84
2018-07-03 07:00:00 15.5 2 Sudeste 9 Sur 0 964.4 0.3 93
2018-07-03 06:00:00 16 4 Sur 8 Sudeste 0 964.1 0.2 92
2018-07-03 05:00:00 16.3 0 Calma 5 Sudeste 0 964.1 0 91
2018-07-03 04:00:00 17 0 Calma 8 Sudeste 0 964.1 -0.1 90
2018-07-03 03:00:00 17.9 -- -- -- -- 0 963.9 0.1 87
2018-07-03 02:00:00 18.3 2 Nordeste 8 Oeste 0 964.1 0.6 86
2018-07-03 01:00:00 18.4 0 Calma 9 Noroeste 0 964.2 1.5 85
2018-07-03 00:00:00 19.5 8 Noroeste 11 Noroeste 0 963.8 1.8 82
2018-07-02 23:00:00 20.9 5 Oeste 11 Oeste 0 963.5 1.8 78
2018-07-02 22:00:00 22.2 7 Norte 24 Norte 0 962.7 1.3 71
2018-07-02 21:00:00 24.4 16 Norte 24 Norte 0 962 0.6 66
2018-07-02 20:00:00 25.9 17 Norte 26 Norte 0 961.7 0.4 48
2018-07-02 19:00:00 27.4 11 Noroeste 18 Noroeste 0 961.4 0 41
2018-07-02 18:00:00 27.6 8 Norte 15 Norte 0 961.4 -0.1 40
2018-07-02 17:00:00 28.6 5 Sudoeste 17 Sur 0 961.3 -0.3 34
2018-07-02 16:00:00 28.4 8 Norte 24 Sudoeste 0 961.4 -0.3 36
2018-07-02 15:00:00 29.7 14 Sur 28 Sur 0 961.5 -0.3 33
2018-07-02 14:00:00 27.9 9 Sur 22 Sur 0 961.6 -0.5 37
2018-07-02 13:00:00 28.1 6 Sudeste 15 Sudoeste 0 961.7 -0.4 41
2018-07-02 12:00:00 26.1 6 Noroeste 13 Noroeste 0 961.8 0.1 52
2018-07-02 11:00:00 24.2 4 Nordeste 9 Norte 0 962.1 0.6 59
2018-07-02 10:00:00 22.5 4 Sudeste 9 Este 0 962.1 1.2 66
2018-07-02 09:00:00 20.4 4 Oeste 11 Noroeste 0 961.7 1 73
2018-07-02 08:00:00 17.3 9 Noroeste 13 Noroeste 0 961.5 0.9 86
2018-07-02 07:00:00 16.4 9 Oeste 15 Oeste 0 960.9 0.6 88
2018-07-02 06:00:00 17.4 6 Oeste 15 Noroeste 0 960.7 0.7 86
2018-07-02 05:00:00 18.5 12 Norte 17 Norte 0 960.6 1.1 83
2018-07-02 04:00:00 18.7 4 Noroeste 18 Norte 0 960.3 1.1 86
2018-07-02 03:00:00 19.6 14 Norte 24 Norte 0 960 0.6 81
2018-07-02 02:00:00 19.5 7 Norte 11 Noroeste 0 959.5 -0.1 86
2018-07-02 01:00:00 19.8 6 Noroeste 18 Noroeste 0 959.2 1.1 86
2018-07-02 00:00:00 19.9 12 Noroeste 21 Norte 0 959.4 2 83
2018-07-01 23:00:00 20.9 12 Noroeste 26 Noroeste 0 959.6 3.4 81
2018-07-01 22:00:00 21.3 18 Norte 35 Norte 0 958.1 2.4 82
2018-07-01 21:00:00 22.5 21 Norte 33 Norte 0 957.4 1.3 79
2018-07-01 20:00:00 30 13 Sudoeste 28 Sur 0 956.2 0.1 37
2018-07-01 19:00:00 31 18 Sur 28 Sur 0 955.7 -1.1 36
2018-07-01 18:00:00 31.2 17 Sudoeste 32 Sur 0 956.1 -1.3 35
2018-07-01 17:00:00 31.4 18 Sur 32 Sur 0 956.1 -1.8 38
2018-07-01 16:00:00 31 16 Sur 35 Sur 0 956.8 -1.5 41
2018-07-01 15:00:00 30.5 9 Sur 24 Sur 0 957.4 -1.2 42
2018-07-01 14:00:00 29.7 8 Sudeste 22 Sudoeste 0 957.9 -0.7 44
2018-07-01 13:00:00 29 8 Sur 24 Sur 0 958.3 -0.5 44
2018-07-01 12:00:00 27.6 6 Sur 13 Sur 0 958.6 -0.2 48
2018-07-01 11:00:00 25 3 Este 9 Este 0 958.6 -0.1 54
2018-07-01 10:00:00 22.5 4 Norte 9 Nordeste 0 958.8 0.2 70
2018-07-01 09:00:00 21 2 Nordeste 8 Nordeste 0 958.8 0.4 80
2018-07-01 08:00:00 19.2 0 Calma 5 Nordeste 0 958.7 0.3 90
2018-07-01 07:00:00 17.3 0 Calma 5 Sudoeste 0 958.6 0.4 96
2018-07-01 06:00:00 17.6 4 Sur 8 Sur 0 958.4 0.1 95
2018-07-01 05:00:00 18 0 Calma 8 Norte 0 958.4 0.1 94
2018-07-01 04:00:00 18 2 Noroeste 9 Noroeste 0 958.2 0.1 94
2018-07-01 03:00:00 18.2 7 Noroeste 13 Noroeste 0 958.3 0.2 95
2018-07-01 02:00:00 18.8 6 Oeste 13 Norte 0 958.3 0.4 95
2018-07-01 01:00:00 19.3 4 Norte 8 Nordeste 0 958.1 0.8 95
2018-07-01 00:00:00 19.8 6 Sur 9 Sur 0 958.1 1.2 92
2018-06-30 23:00:00 20 5 Sudeste 9 Oeste 0 957.9 1.3 93
2018-06-30 22:00:00 20.5 6 Sudoeste 15 Este 0 957.3 1.4 92
2018-06-30 21:00:00 21.1 7 Norte 21 Norte 0 956.9 1.4 86
2018-06-30 20:00:00 20.8 10 Nordeste 50 Oeste 1 956.6 1.9 88
2018-06-30 19:00:00 25.9 37 Oeste 63 Oeste 0 955.9 0.5 55
2018-06-30 18:00:00 28.6 12 Sur 30 Sudeste 0 955.5 -0.5 43
2018-06-30 17:00:00 30.4 20 Sur 33 Sur 0 954.7 -2.3 39
2018-06-30 16:00:00 31.1 15 Sudeste 37 Sudeste 0 955.4 -2.4 39
2018-06-30 15:00:00 30.3 19 Sudeste 28 Sudeste 0 956 -2.3 41
2018-06-30 14:00:00 28.8 17 Sudeste 33 Este 0 957 -1.5 44
2018-06-30 13:00:00 27.6 12 Sur 24 Sur 0 957.8 -0.8 49
2018-06-30 12:00:00 26.4 10 Sudeste 17 Sudeste 0 958.3 -0.1 52
2018-06-30 11:00:00 23.6 3 Sudoeste 11 Nordeste 0 958.5 0 61
2018-06-30 10:00:00 22.4 4 Norte 9 Nordeste 0 958.6 0.4 67
2018-06-30 09:00:00 20.8 5 Nordeste 9 Nordeste 0 958.4 0.5 80
2018-06-30 08:00:00 18.4 2 Nordeste 8 Nordeste 0 958.5 -0.1 89
2018-06-30 07:00:00 16.4 6 Sudoeste 9 Sudoeste 0 958.2 -0.4 95
2018-06-30 06:00:00 17.2 5 Noroeste 13 Norte 0 957.9 -1.2 94
2018-06-30 05:00:00 17.6 10 Noroeste 15 Noroeste 0.1 958.6 -0.7 96
2018-06-30 04:00:00 17.7 12 Sudeste 18 Este 0 958.6 -0.8 94
2018-06-30 03:00:00 18.2 8 Oeste 18 Noroeste 0.2 959.1 0 93
2018-06-30 02:00:00 17.9 7 Norte 9 Nordeste 0.1 959.3 0.1 96
2018-06-30 01:00:00 17.9 3 Nordeste 11 Nordeste 0 959.4 0 93
2018-06-30 00:00:00 17.9 7 Noroeste 22 Nordeste 0.1 959.1 2 94
2018-06-29 23:00:00 17.7 19 Este 45 Sur 15.6 959.2 2.2 91
2018-06-29 22:00:00 22.2 44 Sur 65 Sur 4.4 959.4 2.7 76
2018-06-29 21:00:00 26 6 Sudoeste 9 Sur 0 957.1 0.6 55
2018-06-29 20:00:00 26.6 0 Calma 17 Sur 0 957 0.4 50
2018-06-29 19:00:00 27.4 7 Oeste 13 Oeste 0 956.7 -0.3 50
2018-06-29 18:00:00 28.8 8 Sur 18 Sur 0 956.5 -1 43
2018-06-29 17:00:00 29.5 11 Sur 30 Sur 0 956.6 -1.7 42
2018-06-29 16:00:00 30.3 12 Sudeste 26 Sur 0 957 -1.9 41
2018-06-29 15:00:00 30.1 6 Sur 28 Sur 0 957.5 -1.9 43
2018-06-29 14:00:00 28.3 4 Noroeste 18 Este 0 958.3 -1.5 50
2018-06-29 13:00:00 26.8 8 Este 24 Sur 0 958.9 -1.2 53
2018-06-29 12:00:00 24.5 7 Sur 18 Norte 0 959.4 -0.4 61
2018-06-29 11:00:00 22.8 8 Noroeste 21 Noroeste 0 959.8 0.2 69
2018-06-29 10:00:00 20.8 4 Norte 13 Oeste 0 960.1 0.3 75
2018-06-29 09:00:00 18.2 9 Oeste 13 Oeste 0 959.8 -0.4 87
2018-06-29 08:00:00 17.3 6 Oeste 8 Oeste 0 959.6 -0.1 91
2018-06-29 07:00:00 16.5 6 Norte 9 Norte 0 959.8 -0.6 93
2018-06-29 06:00:00 16.6 5 Oeste 11 Sur 0 960.2 -0.4 91
2018-06-29 05:00:00 16.3 2 Norte 11 Este 0 959.7 -0.8 91
2018-06-29 04:00:00 17 7 Este 13 Noroeste 0 960.4 0 89
2018-06-29 03:00:00 16.6 5 Oeste 11 Oeste 0 960.6 0 90
2018-06-29 02:00:00 16.5 7 Oeste 9 Oeste 0 960.5 -0.2 89
2018-06-29 01:00:00 17.3 7 Noroeste 17 Noroeste 0 960.4 0.5 85
2018-06-29 00:00:00 17.6 11 Noroeste 22 Noroeste 0 960.6 1.1 83
2018-06-28 23:00:00 18 15 Noroeste 30 Noroeste 0 960.7 1.3 81
2018-06-28 22:00:00 18.3 20 Noroeste 32 Noroeste 0 959.9 0.5 79
2018-06-28 21:00:00 19.1 25 Noroeste 35 Norte 0 959.5 0 78
2018-06-28 20:00:00 20.1 23 Noroeste 37 Noroeste 0 959.4 -0.3 74
2018-06-28 19:00:00 20.7 28 Noroeste 42 Noroeste 0 959.4 -0.8 72
2018-06-28 18:00:00 22 30 Noroeste 46 Norte 0 959.5 -1.2 68
2018-06-28 17:00:00 23.4 31 Noroeste 45 Noroeste 0 959.7 -1.9 64
2018-06-28 16:00:00 23.4 33 Noroeste 46 Noroeste 0 960.2 -1.8 65
2018-06-28 15:00:00 23.6 34 Noroeste 45 Norte 0 960.7 -1.7 65
2018-06-28 14:00:00 22.7 29 Noroeste 42 Noroeste 0 961.6 -1.3 67
2018-06-28 13:00:00 22.6 25 Norte 37 Norte 0 962 -1.6 66
2018-06-28 12:00:00 20.8 24 Noroeste 41 Norte 0 962.4 -1 72
2018-06-28 11:00:00 21.1 27 Noroeste 37 Norte 0 962.9 -0.6 71
2018-06-28 10:00:00 19.5 25 Noroeste 35 Noroeste 0 963.6 0.1 76
2018-06-28 09:00:00 18.8 18 Noroeste 32 Noroeste 0 963.4 -0.1 79
2018-06-28 08:00:00 18.2 17 Noroeste 28 Norte 0 963.5 0.1 82
2018-06-28 07:00:00 17.5 19 Noroeste 28 Noroeste 0 963.5 -0.2 84
2018-06-28 06:00:00 17.6 19 Noroeste 33 Norte 0 963.5 -0.6 85
2018-06-28 05:00:00 17.6 19 Noroeste 30 Norte 0 963.4 -1.2 85
2018-06-28 04:00:00 17.7 18 Norte 30 Norte 0 963.7 -1.4 85
2018-06-28 03:00:00 17.7 19 Noroeste 30 Noroeste 0 964.1 -0.9 85
2018-06-28 02:00:00 17.6 15 Noroeste 26 Norte 0 964.6 -0.6 85
2018-06-28 01:00:00 17.6 21 Norte 32 Norte 0 965.1 0.2 86
2018-06-28 00:00:00 17.9 17 Noroeste 30 Norte 0 965 0 85
2018-06-27 23:00:00 17.9 16 Noroeste 26 Norte 0 965.2 0.3 86
2018-06-27 22:00:00 18.3 16 Noroeste 22 Noroeste 0 964.9 0.8 85
2018-06-27 21:00:00 18.5 15 Noroeste 24 Noroeste 0 965 1.1 88
2018-06-27 20:00:00 19.4 16 Noroeste 41 Noroeste 0 964.9 0.9 80
2018-06-27 19:00:00 20.2 26 Norte 45 Noroeste 0 964.1 0 78
2018-06-27 18:00:00 21.3 31 Noroeste 41 Noroeste 0 963.9 0.1 76
2018-06-27 17:00:00 23.3 23 Noroeste 37 Noroeste 0 964 -0.1 71
2018-06-27 16:00:00 25.4 26 Noroeste 41 Norte 0 964.1 -0.4 65
2018-06-27 15:00:00 28.8 12 Nordeste 24 Norte 0 963.8 -1.1 55
2018-06-27 14:00:00 29.5 10 Noroeste 18 Noroeste 0 964.1 -1.5 53
2018-06-27 13:00:00 28.3 5 Oeste 13 Noroeste 0 964.5 -1.5 52
2018-06-27 12:00:00 27 6 Norte 15 Nordeste 0 964.9 -1.3 57
2018-06-27 11:00:00 24.9 8 Oeste 15 Oeste 0 965.6 -0.3 63
2018-06-27 10:00:00 22.3 5 Norte 11 Nordeste 0 966 0.3 71
2018-06-27 09:00:00 20.2 4 Norte 8 Noroeste 0 966.2 0.3 78
2018-06-27 08:00:00 17.3 0 Calma 8 Oeste 0 965.9 -0.2 90
2018-06-27 07:00:00 16.6 4 Sur 8 Oeste 0 965.7 -0.6 91
2018-06-27 06:00:00 16.9 4 Oeste 8 Oeste 0 965.9 -0.3 89
2018-06-27 05:00:00 17.5 3 Oeste 18 Noroeste 0 966.1 0.1 88
2018-06-27 04:00:00 18.4 14 Noroeste 22 Norte 0 966.3 0.2 85
2018-06-27 03:00:00 19 10 Noroeste 18 Noroeste 0 966.2 0.8 84
2018-06-27 02:00:00 19.7 4 Norte 30 Norte 0 966 0.8 80
2018-06-27 01:00:00 21.3 11 Noroeste 22 Norte 0 966.1 1.9 72
2018-06-27 00:00:00 21.9 10 Noroeste 13 Noroeste 0 965.4 2 70
2018-06-26 23:00:00 22.5 4 Noroeste 18 Noroeste 0 965.2 2.3 70
2018-06-26 22:00:00 24.2 14 Norte 21 Nordeste 0 964.2 1.4 64
2018-06-26 21:00:00 26.8 13 Nordeste 30 Nordeste 0 963.4 0.4 51
2018-06-26 20:00:00 28.7 23 Nordeste 32 Nordeste 0 962.9 -0.4 50
2018-06-26 19:00:00 30.1 19 Nordeste 32 Nordeste 0 962.8 -1 50
2018-06-26 18:00:00 32.1 9 Noroeste 21 Nordeste 0 963 -1.3 36
2018-06-26 17:00:00 31.9 8 Noroeste 26 Noroeste 0 963.3 -1.6 36
2018-06-26 16:00:00 31.2 8 Norte 18 Norte 0 963.8 -1.5 42
2018-06-26 15:00:00 30 5 Norte 21 Sudeste 0 964.3 -1.3 43
2018-06-26 14:00:00 29.4 5 Este 17 Nordeste 0 964.9 -1 48
2018-06-26 13:00:00 28.2 10 Sudeste -- -- -- 965.3 -0.8 50
2018-06-26 12:00:00 26.5 8 Sudeste 15 Este 0 965.6 -0.4 53
2018-06-26 11:00:00 24.2 5 Noroeste 11 Norte 0 965.9 0 52
2018-06-26 10:00:00 21.6 4 Oeste 9 Oeste 0 966.1 0.3 59
2018-06-26 09:00:00 18.9 3 Oeste 8 Oeste 0 966 0.6 67
2018-06-26 08:00:00 16.5 0 Calma -- -- 0 965.9 0.7 78
2018-06-26 07:00:00 13 3 Sur 5 Sur 0 965.8 0.5 89
2018-06-26 06:00:00 13.1 4 Sur 8 Sur 0 965.4 0 89
2018-06-26 05:00:00 13.8 4 Sudeste 11 Sur 0 965.2 -0.1 88
2018-06-26 04:00:00 14 4 Este 9 Sur 0 965.3 -0.1 87
2018-06-26 03:00:00 15.5 8 Sudeste 13 Sudoeste 0 965.4 0.1 85
2018-06-26 02:00:00 16.9 6 Noroeste 11 Noroeste 0 965.3 0.3 78
2018-06-26 01:00:00 18.3 6 Noroeste 13 Noroeste 0 965.4 1.1 73
2018-06-26 00:00:00 19.6 15 Noroeste 22 Noroeste 0 965.3 1.6 70
2018-06-25 23:00:00 20.2 12 Noroeste 26 Norte 0 965 1.6 70
2018-06-25 22:00:00 22 19 Norte 30 Noroeste 0 964.3 1 65
2018-06-25 21:00:00 24.6 19 Norte 30 Norte 0 963.7 0.3 58
2018-06-25 20:00:00 26.3 19 Norte 32 Norte 0 963.4 -0.3 52
2018-06-25 19:00:00 27.7 20 Norte 32 Noroeste 0 963.3 -0.6 46
2018-06-25 18:00:00 28.6 22 Norte 35 Norte 0 963.4 -0.5 39
2018-06-25 17:00:00 29.3 23 Norte 33 Norte 0 963.7 -0.6 39
2018-06-25 16:00:00 29.6 16 Noroeste 30 Noroeste 0 963.9 -0.8 38
2018-06-25 15:00:00 29.6 17 Norte 28 Norte 0 963.9 -1 39
2018-06-25 14:00:00 29.1 14 Noroeste 26 Oeste 0 964.3 -0.8 39
2018-06-25 13:00:00 27.7 13 Norte 24 Noroeste 0 964.7 -0.6 41
2018-06-25 12:00:00 26.8 16 Noroeste 28 Noroeste 0 964.9 -0.2 44
2018-06-25 11:00:00 25.4 15 Noroeste 26 Norte 0 965.1 0.2 48
2018-06-25 10:00:00 22.9 5 Noroeste 9 Noroeste 0 965.3 0.5 57
2018-06-25 09:00:00 21.1 4 Sudoeste 8 Sudoeste 0 965.1 0.6 60
2018-06-25 08:00:00 17.2 3 Este 8 Sur 0 964.9 0.5 76
2018-06-25 07:00:00 13.2 5 Sur 11 Nordeste 0 964.8 0 87
2018-06-25 06:00:00 14 4 Sudeste 11 Sudeste 0 964.5 -0.6 87
2018-06-25 05:00:00 14.1 3 Este 9 Sur 0 964.4 -1 86
2018-06-25 04:00:00 15.3 7 Sudeste 11 Noroeste 0 964.8 -0.8 82
2018-06-25 03:00:00 17 10 Noroeste 21 Norte 0 965.1 -0.4 76
2018-06-25 02:00:00 17.7 12 Noroeste 18 Norte 0 965.4 0.3 72
2018-06-25 01:00:00 18.4 10 Norte 15 Noroeste 0 965.6 0.9 71
2018-06-25 00:00:00 19.7 12 Noroeste 18 Noroeste 0 965.5 1.4 70
2018-06-24 23:00:00 20.2 13 Noroeste 17 Noroeste 0 965.1 1.2 69
2018-06-24 22:00:00 22.5 11 Norte 26 Norte 0 964.7 0.8 50
2018-06-24 21:00:00 24.9 17 Norte 28 Norte 0 964.1 0.1 45
2018-06-24 20:00:00 26.7 15 Norte 28 Norte 0 963.9 -0.3 44
2018-06-24 19:00:00 28.3 15 Norte 26 Norte 0 963.9 -0.5 38
2018-06-24 18:00:00 29.2 22 Norte 30 Norte 0 964 -0.9 30
2018-06-24 17:00:00 29.6 18 Norte 30 Norte 0 964.2 -1.3 30
2018-06-24 16:00:00 30.6 13 Noroeste 26 Norte 0 964.4 -1.6 36
2018-06-24 15:00:00 28.9 5 Norte 17 Noroeste 0 964.9 -1.3 42
2018-06-24 14:00:00 27.9 7 Norte 15 Nordeste 0 965.5 -1.1 41
2018-06-24 13:00:00 26.6 3 Sur 15 Oeste 0 966 -0.8 50
2018-06-24 12:00:00 24.3 2 Sur 9 Este 0 966.2 -0.8 50
2018-06-24 11:00:00 21.9 4 Este 11 Nordeste 0 966.6 -0.3 50
2018-06-24 10:00:00 19.6 3 Nordeste 8 Norte 0 966.8 0.3 62
2018-06-24 09:00:00 16.8 4 Este 8 Este 0 967 0.7 69
2018-06-24 08:00:00 14 4 Este 8 Este 0 966.9 0.8 81
2018-06-24 07:00:00 10.9 3 Sudoeste 8 Sudoeste 0 966.5 0.3 91
2018-06-24 06:00:00 11 0 Calma 8 Sur 0 966.3 0.1 91
2018-06-24 05:00:00 11.4 4 Este 13 Sur 0 966.1 -0.3 90
2018-06-24 04:00:00 12.3 6 Sudeste -- -- 0 966.2 -0.3 87
2018-06-24 03:00:00 13 8 Sudeste 9 Sudeste 0 966.2 -0.5 86
2018-06-24 02:00:00 14.3 6 Sudeste 13 Noroeste 0 966.4 -0.3 83
2018-06-24 01:00:00 16.2 10 Noroeste 21 Noroeste 0 966.5 0.5 71
2018-06-24 00:00:00 17.1 12 Noroeste 21 Norte 0 966.7 0.9 71
2018-06-23 23:00:00 18.2 12 Noroeste 30 Norte 0 966.7 1.2 70
2018-06-23 22:00:00 19.7 17 Noroeste 30 Norte 0 966 0.6 66
2018-06-23 21:00:00 21.9 20 Noroeste 33 Noroeste 0 965.8 0.3 59
2018-06-23 20:00:00 23.7 22 Norte 33 Noroeste 0 965.5 -0.2 55
2018-06-23 19:00:00 24.9 22 Norte 37 Norte 0 965.4 -0.7 50
2018-06-23 18:00:00 26.1 24 Norte 37 Noroeste 0 965.5 -1.1 47
2018-06-23 17:00:00 26.7 22 Norte 35 Norte 0 965.7 -1.4 43
2018-06-23 16:00:00 27.2 21 Noroeste 32 Norte 0 966.1 -1.3 42
2018-06-23 15:00:00 26.6 20 Norte 32 Noroeste 0 966.6 -1.1 43
2018-06-23 14:00:00 26.1 20 Noroeste 30 Norte 0 967.1 -0.7 42
2018-06-23 13:00:00 25.9 17 Noroeste 30 Noroeste 0 967.4 -0.7 42
2018-06-23 12:00:00 24.7 12 Noroeste 26 Norte 0 967.7 -0.4 45
2018-06-23 11:00:00 23.1 10 Oeste 17 Noroeste 0 967.8 -0.2 49
2018-06-23 10:00:00 20.5 8 Noroeste 15 Noroeste 0 968.1 0.2 57
2018-06-23 09:00:00 18.5 6 Noroeste 9 Noroeste 0 968.1 0.3 64
2018-06-23 08:00:00 15.4 5 Este 9 Sudeste 0 968 0.4 75
2018-06-23 07:00:00 12.3 8 Sudeste 9 Sudeste 0 967.9 0.3 85
2018-06-23 06:00:00 13.5 5 Noroeste 18 Norte 0 967.8 0.1 77
2018-06-23 05:00:00 14.4 13 Norte 26 Noroeste 0 967.6 -0.5 75
2018-06-23 04:00:00 14.9 17 Noroeste 28 Noroeste 0 967.6 -0.8 73
2018-06-23 03:00:00 15.3 20 Noroeste 30 Norte 0 967.7 -0.7 69
2018-06-23 02:00:00 15.4 16 Noroeste 24 Noroeste 0 968.1 -0.3 68
2018-06-23 01:00:00 15.5 15 Noroeste 37 Norte 0 968.4 0.5 76
2018-06-23 00:00:00 16.1 23 Norte 37 Norte 0 968.4 0.8 80
2018-06-22 23:00:00 17 21 Noroeste 33 Noroeste 0 968.4 1.1 77
2018-06-22 22:00:00 18.1 24 Norte 39 Noroeste 0 967.9 0.9 76
2018-06-22 21:00:00 19.9 27 Noroeste 42 Noroeste 0 967.6 0.6 74
2018-06-22 20:00:00 21.6 29 Norte 42 Norte 0 967.3 0.2 69
2018-06-22 19:00:00 23.3 30 Norte 41 Norte 0 967 -0.2 62
2018-06-22 18:00:00 24.7 26 Norte 42 Norte 0 967 -0.5 58
2018-06-22 17:00:00 25.3 27 Norte 42 Norte 0 967.1 -1 55
2018-06-22 16:00:00 25.6 30 Norte 42 Norte 0 967.2 -1.1 54
2018-06-22 15:00:00 25.4 29 Norte 41 Norte 0 967.5 -0.9 53
2018-06-22 14:00:00 25 24 Norte 39 Norte 0 968.1 -0.4 53
2018-06-22 13:00:00 23.8 24 Norte 41 Norte 0 968.3 -0.5 62
2018-06-22 12:00:00 22.6 23 Norte 39 Norte 0 968.4 0 68
2018-06-22 11:00:00 22.4 28 Norte 41 Norte 0 968.5 0.3 70
2018-06-22 10:00:00 20 24 Norte 35 Norte 0 968.8 0.7 80
2018-06-22 09:00:00 20.5 21 Norte 33 Norte 0 968.4 0.5 79
2018-06-22 08:00:00 18.9 17 Noroeste 28 Norte 0 968.2 0.1 85
2018-06-22 07:00:00 18.1 21 Norte 32 Noroeste 0 968.1 -0.4 88
2018-06-22 06:00:00 18.3 15 Norte 22 Norte 0 967.9 -0.6 87
2018-06-22 05:00:00 17.8 14 Norte 24 Norte 0 968.1 -0.5 88
2018-06-22 04:00:00 18.4 15 Norte 30 Norte 0 968.5 -0.4 84
2018-06-22 03:00:00 18.6 21 Norte 32 Norte 0 968.5 -0.4 84
2018-06-22 02:00:00 18.5 19 Norte 30 Norte 0 968.6 -0.2 85
2018-06-22 01:00:00 18.2 17 Noroeste 30 Norte 0 968.9 1.1 85
2018-06-22 00:00:00 18.5 18 Norte 37 Noroeste 0 968.9 1.3 82
2018-06-21 23:00:00 19 26 Noroeste -- -- -- 968.8 1.8 81
2018-06-21 22:00:00 19.1 22 Norte 41 Norte 0 967.8 1.3 83
2018-06-21 21:00:00 20.3 28 Norte 42 Norte 0 967.6 1.4 79
2018-06-21 20:00:00 21.7 28 Noroeste 45 Noroeste 0 967 0.9 75
2018-06-21 19:00:00 24.1 27 Norte 42 Norte 0 966.5 0.3 68
2018-06-21 18:00:00 26.6 28 Noroeste 41 Noroeste 0 966.2 0 62
2018-06-21 17:00:00 28.7 28 Norte 39 Norte 0 966.1 -0.4 54
2018-06-21 16:00:00 29 27 Norte 39 Norte 0 966.2 -0.8 54
2018-06-21 15:00:00 30.4 19 Norte 26 Norte 0 966.2 -1.1 48
2018-06-21 14:00:00 29.9 11 Norte 22 Noroeste 0 966.5 -0.9 51
2018-06-21 13:00:00 28.1 6 Norte 13 Norte 0 967 -0.6 50
2018-06-21 12:00:00 26 5 Norte 13 Oeste 0 967.3 -0.6 66
2018-06-21 11:00:00 23.6 6 Este 11 Este 0 967.4 -0.4 73
2018-06-21 10:00:00 20.8 6 Sudeste 11 Sudeste 0 967.6 0.1 83
2018-06-21 09:00:00 19.5 7 Noroeste 13 Noroeste 0 967.9 0.8 87
2018-06-21 08:00:00 18.5 5 Noroeste 8 Noroeste 0 967.8 0.7 93
2018-06-21 07:00:00 17.3 5 Noroeste 8 Noroeste 0 967.5 0.2 95
2018-06-21 06:00:00 16.7 6 Oeste -- -- -- 967.1 -0.2 94
2018-06-21 05:00:00 17.5 4 Oeste 8 Oeste 0 967.1 0 94
2018-06-21 04:00:00 18.4 3 Oeste 11 Oeste 0 967.3 0.5 91
2018-06-21 03:00:00 19.4 9 Oeste 11 Oeste 0 967.3 0.6 91
2018-06-21 02:00:00 20.1 6 Oeste 9 Oeste 0 967.1 0.7 90
2018-06-21 01:00:00 20.6 5 Oeste 11 Oeste 0 966.8 1.4 88
2018-06-21 00:00:00 21.8 6 Oeste 9 Oeste 0 966.7 2 84
2018-06-20 23:00:00 23.1 7 Oeste 11 Oeste 0 966.4 1.9 80
2018-06-20 22:00:00 25.7 8 Oeste 21 Nordeste 0 965.4 0.9 65
2018-06-20 21:00:00 27.5 15 Nordeste 22 Nordeste 0 964.7 -0.2 58
2018-06-20 20:00:00 30.7 5 Nordeste 11 Nordeste 0 964.5 -0.6 37
2018-06-20 19:00:00 31.3 4 Nordeste 15 Este 0 964.5 -1 33
2018-06-20 18:00:00 31.7 8 Sudeste 22 Sudeste 0 964.9 -0.9 36
2018-06-20 17:00:00 31.6 6 Este 22 Sudeste 0 965.1 -1.2 37
2018-06-20 16:00:00 31.6 6 Sudeste 24 Sudeste 0 965.5 -1.2 35
2018-06-20 15:00:00 31.4 12 Sudeste 42 Sudeste 0 965.8 -1.1 36
2018-06-20 14:00:00 30.4 6 Sudeste 24 Sur 0 966.3 -0.9 39
2018-06-20 13:00:00 30 15 Sur 24 Sudoeste 0 966.7 -0.9 41
2018-06-20 12:00:00 27.9 10 Sudeste 21 Sudeste 0 966.9 -0.7 49
2018-06-20 11:00:00 24.9 3 Nordeste 11 Noroeste 0 967.2 -0.3 59
2018-06-20 10:00:00 21.7 4 Nordeste 9 Nordeste 0 967.6 0.3 69
2018-06-20 09:00:00 18.9 3 Nordeste 5 Este 0 967.6 0.5 78
2018-06-20 08:00:00 16.5 0 Calma 9 Sudoeste 0 967.5 0.4 87
2018-06-20 07:00:00 13.5 2 Sur 5 Sur 0 967.3 0.2 93
2018-06-20 06:00:00 13.3 0 Calma 4 Oeste 0 967.1 -0.3 95
2018-06-20 05:00:00 14.2 0 Calma 5 Nordeste 0 967.1 -0.5 92
2018-06-20 04:00:00 14.6 0 Calma 2 Sur 0 967.1 -0.7 94
2018-06-20 03:00:00 14.9 0 Calma 8 Oeste 0 967.4 -0.4 95
2018-06-20 02:00:00 15.5 3 Oeste 9 Oeste 0 967.6 0 93
2018-06-20 01:00:00 16.1 7 Oeste 9 Oeste 0 967.8 0.7 91
2018-06-20 00:00:00 16.8 8 Oeste 13 Oeste 0 967.8 1 90
2018-06-19 23:00:00 18.2 8 Oeste 15 Noroeste 0 967.6 0.8 85
2018-06-19 22:00:00 20.2 10 Noroeste 18 Noroeste 0 967.1 0.4 77
2018-06-19 21:00:00 22.7 15 Noroeste 24 Noroeste 0 966.8 -0.5 68
2018-06-19 20:00:00 24.6 15 Norte 26 Norte 0 966.8 -1.1 57
2018-06-19 19:00:00 25.8 14 Norte 26 Noroeste 0 966.7 -1.5 55
2018-06-19 18:00:00 26.7 18 Noroeste 30 Noroeste 0 967.3 -1.3 55
2018-06-19 17:00:00 26.1 17 Noroeste 28 Noroeste 0 967.9 -1 57
2018-06-19 16:00:00 26 15 Noroeste 30 Norte 0 968.2 -1.3 56
2018-06-19 15:00:00 25.5 14 Noroeste 24 Noroeste 0 968.6 -1.4 57
2018-06-19 14:00:00 25.6 17 Oeste 24 Oeste 0 968.9 -1.5 57
2018-06-19 13:00:00 24 12 Oeste 21 Oeste 0 969.5 -1.3 60
2018-06-19 12:00:00 22.3 7 Noroeste 22 Noroeste 0 970 -1 62
2018-06-19 11:00:00 20.6 13 Noroeste 24 Noroeste 0 970.4 -0.5 66
2018-06-19 10:00:00 19.3 17 Noroeste 28 Noroeste 0 970.8 -0.3 70
2018-06-19 09:00:00 18.2 18 Noroeste 28 Noroeste 0 971 0 73
2018-06-19 08:00:00 16.1 18 Noroeste 26 Noroeste 0 970.9 -0.1 79
2018-06-19 07:00:00 14.8 17 Noroeste 30 Noroeste 0 971.1 0 83
2018-06-19 06:00:00 14.5 22 Noroeste 30 Noroeste 0 971 -0.4 84
2018-06-19 05:00:00 14.6 22 Noroeste 33 Norte 0 971 -0.5 85
2018-06-19 04:00:00 14.8 24 Noroeste 33 Noroeste 0 971.1 -0.7 85
2018-06-19 03:00:00 15.6 25 Norte 35 Norte 0 971.4 -0.7 83
2018-06-19 02:00:00 15.6 24 Noroeste 35 Noroeste 0 971.5 -0.6 83
2018-06-19 01:00:00 15.9 24 Norte 35 Norte 0 971.8 0 82
2018-06-19 00:00:00 16.1 19 Noroeste 37 Norte 0 972.1 0.4 82
2018-06-18 23:00:00 16.6 24 Norte 39 Norte 0 972.1 0.3 79
2018-06-18 22:00:00 16.9 22 Norte 39 Norte 0 971.8 0.2 77
2018-06-18 21:00:00 17.8 25 Norte 37 Norte 0 971.7 -0.2 72
2018-06-18 20:00:00 18.9 27 Norte 52 Norte 0 971.8 -0.6 65
2018-06-18 19:00:00 18.9 35 Norte 46 Norte 0 971.6 -0.9 69
2018-06-18 18:00:00 20.3 28 Norte 46 Norte 0 971.9 -0.5 62
2018-06-18 17:00:00 20.4 27 Norte 42 Norte 0 972.4 -0.2 62
2018-06-18 16:00:00 20.3 28 Norte 48 Norte 0 972.5 -0.2 64
2018-06-18 15:00:00 21.1 33 Norte 46 Norte 0 972.4 -0.1 63
2018-06-18 14:00:00 20.4 31 Norte 46 Norte 0 972.6 -0.1 65
2018-06-18 13:00:00 20.6 32 Norte 46 Norte 0 972.7 -0.1 64
2018-06-18 12:00:00 20.1 31 Norte 46 Norte 0 972.5 -0.4 64
2018-06-18 11:00:00 19.4 26 Noroeste 37 Norte 0 972.7 -0.1 63
2018-06-18 10:00:00 18.9 20 Norte 32 Norte 0 972.8 0.1 64
2018-06-18 09:00:00 17.4 15 Noroeste 22 Noroeste 0 972.9 0.4 66
2018-06-18 08:00:00 15.3 8 Noroeste 13 Noroeste 0 972.8 0.5 70
2018-06-18 07:00:00 12 0 Calma 8 Sudeste 0 972.7 0.2 81
2018-06-18 06:00:00 10.9 6 Sudeste 11 Noroeste 0 972.5 0.1 84
2018-06-18 05:00:00 10.9 0 Calma 21 Norte 0 972.3 -0.5 73
2018-06-18 04:00:00 10.9 9 Noroeste 17 Norte 0 972.5 -0.7 74
2018-06-18 03:00:00 12.4 2 Nordeste 13 Norte 0 972.4 -1.1 71
2018-06-18 02:00:00 12 5 Nordeste 17 Norte 0 972.8 -0.4 72
2018-06-18 01:00:00 12.5 5 Oeste 13 Noroeste 0 973.2 0.6 74
2018-06-18 00:00:00 13.2 9 Noroeste 17 Noroeste 0 973.5 1.3 76
2018-06-17 23:00:00 14 9 Norte 22 Norte 0 973.2 1.5 73
2018-06-17 22:00:00 15 11 Norte 30 Norte 0 972.6 1.4 68
2018-06-17 21:00:00 17 19 Norte 35 Norte 0 972.2 1.3 59
2018-06-17 20:00:00 18.4 27 Norte 42 Norte 0 971.7 0.7 56
2018-06-17 19:00:00 19.4 27 Norte 45 Norte 0 971.2 0.2 52
2018-06-17 18:00:00 20.4 26 Norte 39 Norte 0 970.9 -0.1 50
2018-06-17 17:00:00 20.8 22 Norte 39 Norte 0 971 -0.5 52
2018-06-17 16:00:00 20.8 29 Norte 42 Norte 0 971 -0.7 51
2018-06-17 15:00:00 20.5 23 Norte 37 Norte 0 971 -0.3 53
2018-06-17 14:00:00 19.8 18 Norte 35 Norte 0 971.5 0.3 57
2018-06-17 13:00:00 17.5 19 Norte 37 Norte 0 971.7 0.6 65
2018-06-17 12:00:00 18.4 23 Noroeste 37 Norte 0 971.3 0.4 67
2018-06-17 11:00:00 16.6 17 Noroeste 33 Norte 0 971.2 0.9 75
2018-06-17 10:00:00 15.7 19 Norte 35 Norte 0 971.1 1.2 77
2018-06-17 09:00:00 14.1 12 Noroeste 24 Norte 0 970.9 1.4 83
2018-06-17 08:00:00 13.5 13 Noroeste 24 Norte 0 970.3 0.7 84
2018-06-17 07:00:00 12.9 14 Noroeste 22 Noroeste 0 969.9 0.5 84
2018-06-17 06:00:00 12.1 14 Norte 18 Norte 0 969.5 -0.1 84
2018-06-17 05:00:00 11.4 6 Noroeste 24 Norte 0 969.6 -0.3 84
2018-06-17 04:00:00 11.9 15 Norte 22 Norte 0 969.4 -0.4 81
2018-06-17 03:00:00 11.7 9 Noroeste 18 Norte 0 969.6 -0.2 83
2018-06-17 02:00:00 12.4 11 Norte 32 Norte 0 969.9 0.3 80
2018-06-17 01:00:00 12.9 18 Norte 30 Norte 0 969.8 1.2 78
2018-06-17 00:00:00 13.3 17 Norte 30 Norte 0 969.8 1.5 75